Time;durP1;ratioP1;P1;durP2;ratioP2;P2;SDS_P1;SDS_P2;PMS_P1;PMS_P2;Temp;Humidity;BMP_temperature;BMP_pressure;BME280_temperature;BME280_humidity;BME280_pressure;Samples;Min_cycle;Max_cycle;Signal;HPM_P1;HPM_P2
2022/01/18 00:01:11;;;;;;;81.72;8.98;;;7.40;99.90;;;;;;4971152;28;20045;-45
2022/01/18 00:03:38;;;;;;;69.90;8.43;;;7.40;99.90;;;;;;4971239;28;20133;-42
2022/01/18 00:06:05;;;;;;;70.93;9.10;;;7.40;99.90;;;;;;4970911;28;20043;-44
2022/01/18 00:08:31;;;;;;;70.75;9.35;;;7.40;99.90;;;;;;4956838;28;20138;-43
2022/01/18 00:10:58;;;;;;;73.03;10.23;;;7.40;99.90;;;;;;4971612;28;20092;-43
2022/01/18 00:13:37;;;;;;;54.47;8.52;;;7.30;99.90;;;;;;4972045;28;20061;-43
2022/01/18 00:16:27;;;;;;;58.90;8.63;;;7.30;99.90;;;;;;4974840;28;20047;-42
2022/01/18 00:18:55;;;;;;;63.53;8.75;;;7.30;99.90;;;;;;4970933;28;20062;-45
2022/01/18 00:21:30;;;;;;;76.55;8.77;;;7.30;99.90;;;;;;4974726;28;20078;-44
2022/01/18 00:24:15;;;;;;;61.35;8.60;;;7.20;99.90;;;;;;4970809;28;20057;-45
2022/01/18 00:26:42;;;;;;;61.67;8.10;;;7.20;99.90;;;;;;4990721;28;20121;-43
2022/01/18 00:29:12;;;;;;;63.72;8.95;;;7.20;99.90;;;;;;4975838;28;20137;-44
2022/01/18 00:31:48;;;;;;;74.40;9.40;;;7.20;99.90;;;;;;4969688;28;20492;-43
2022/01/18 00:34:21;;;;;;;71.93;8.55;;;7.20;99.90;;;;;;4974314;28;20407;-43
2022/01/18 00:36:59;;;;;;;64.97;8.45;;;7.20;99.90;;;;;;4974070;28;20546;-44
2022/01/18 00:39:26;;;;;;;63.03;7.50;;;7.10;99.90;;;;;;4974444;28;20057;-42
2022/01/18 00:41:52;;;;;;;67.45;7.63;;;7.10;99.90;;;;;;4973820;28;20046;-43
2022/01/18 00:44:19;;;;;;;67.25;8.05;;;7.10;99.90;;;;;;4974400;28;20054;-42
2022/01/18 00:46:47;;;;;;;61.50;8.38;;;7.10;99.90;;;;;;4973958;28;20058;-43
2022/01/18 00:49:16;;;;;;;56.45;6.70;;;7.10;99.90;;;;;;4990776;28;20054;-43
2022/01/18 00:51:45;;;;;;;74.60;8.27;;;7.10;99.90;;;;;;4963438;28;20487;-44
2022/01/18 00:54:18;;;;;;;62.78;8.57;;;7.00;99.90;;;;;;4971132;28;20158;-43
2022/01/18 00:56:45;;;;;;;65.68;7.95;;;7.00;99.90;;;;;;4973345;28;20043;-43
2022/01/18 00:59:11;;;;;;;67.00;9.32;;;7.00;99.90;;;;;;4974491;28;20074;-45
2022/01/18 01:01:38;;;;;;;69.28;8.65;;;7.00;99.90;;;;;;4974945;28;20057;-44
2022/01/18 01:04:05;;;;;;;63.05;8.40;;;7.00;99.90;;;;;;4975134;28;20065;-44
2022/01/18 01:06:33;;;;;;;62.13;7.53;;;7.00;99.90;;;;;;4973092;28;20498;-44
2022/01/18 01:09:00;;;;;;;61.63;8.50;;;7.00;99.90;;;;;;4973797;28;20138;-44
2022/01/18 01:11:27;;;;;;;74.65;8.90;;;6.90;99.90;;;;;;4973499;28;20125;-44
2022/01/18 01:13:54;;;;;;;74.28;8.35;;;6.90;99.90;;;;;;4973151;28;20054;-45
2022/01/18 01:19:29;;;;;;;59.20;8.07;;;6.90;99.90;;;;;;5115126;27;20466;-43
2022/01/18 01:44:27;;;;;;;71.60;8.23;;;6.60;99.90;;;;;;5050128;28;20409;-43
2022/01/18 01:46:54;;;;;;;73.47;9.02;;;6.60;99.90;;;;;;5088218;28;20052;-42
2022/01/18 01:49:23;;;;;;;61.33;7.78;;;6.60;99.90;;;;;;5098636;28;20135;-42
2022/01/18 01:51:51;;;;;;;45.80;7.13;;;6.60;99.90;;;;;;5095547;28;20044;-43
2022/01/18 01:54:17;;;;;;;77.75;7.82;;;6.60;99.90;;;;;;5098822;28;20043;-43
2022/01/18 01:56:44;;;;;;;54.33;6.55;;;6.60;99.90;;;;;;5093364;28;20464;-43
2022/01/18 01:59:11;;;;;;;63.75;8.02;;;6.60;99.90;;;;;;5107580;28;20073;-43
2022/01/18 02:01:42;;;;;;;66.13;8.27;;;6.60;99.90;;;;;;5092910;28;20044;-42
2022/01/18 02:04:09;;;;;;;56.22;8.73;;;6.60;99.90;;;;;;5107788;28;20498;-44
2022/01/18 02:06:35;;;;;;;51.15;8.60;;;6.60;99.90;;;;;;5109417;28;20060;-43
2022/01/18 02:09:04;;;;;;;54.63;8.43;;;6.60;99.90;;;;;;5099925;28;20043;-44
2022/01/18 02:11:30;;;;;;;36.55;6.50;;;6.70;99.90;;;;;;5103012;28;20083;-43
2022/01/18 02:13:57;;;;;;;50.25;6.97;;;6.60;99.90;;;;;;5100631;28;20380;-43
2022/01/18 02:21:54;;;;;;;61.53;8.07;;;6.70;99.90;;;;;;5094844;28;20053;-43
2022/01/18 02:24:22;;;;;;;51.25;9.40;;;6.70;99.90;;;;;;5115637;28;20059;-44
2022/01/18 02:26:48;;;;;;;53.20;8.30;;;6.70;99.90;;;;;;5098046;28;20052;-44
2022/01/18 02:29:15;;;;;;;62.05;8.60;;;6.70;99.90;;;;;;5095214;28;20044;-43
2022/01/18 02:31:42;;;;;;;68.55;8.93;;;6.70;99.90;;;;;;5088066;28;20047;-42
2022/01/18 02:34:09;;;;;;;52.55;8.07;;;6.70;99.90;;;;;;5091085;28;20161;-43
2022/01/18 02:36:36;;;;;;;59.97;8.25;;;6.70;99.90;;;;;;5088611;28;20050;-44
2022/01/18 02:39:05;;;;;;;59.92;8.48;;;6.70;99.90;;;;;;5077992;28;20048;-44
2022/01/18 02:41:32;;;;;;;51.97;7.28;;;6.70;99.90;;;;;;5083685;28;20058;-44
2022/01/18 02:43:59;;;;;;;65.28;7.65;;;6.80;99.90;;;;;;5085753;28;20075;-43
2022/01/18 02:46:27;;;;;;;38.72;6.30;;;6.70;99.90;;;;;;5088581;28;20131;-43
2022/01/18 02:48:54;;;;;;;40.00;6.38;;;6.60;99.90;;;;;;5088666;28;20052;-44
2022/01/18 02:51:21;;;;;;;63.03;6.90;;;6.60;99.90;;;;;;5083862;28;20079;-43
2022/01/18 02:54:00;;;;;;;44.67;6.68;;;6.60;99.90;;;;;;5086062;28;20118;-42
2022/01/18 02:56:29;;;;;;;32.33;5.50;;;6.60;99.90;;;;;;5083804;28;20484;-43
2022/01/18 02:59:04;;;;;;;46.13;6.40;;;6.60;99.90;;;;;;5080589;28;20404;-43
2022/01/18 03:04:15;;;;;;;42.67;6.65;;;6.60;99.90;;;;;;5077493;28;20044;-43
2022/01/18 03:06:42;;;;;;;49.38;6.88;;;6.60;99.90;;;;;;5089394;28;20050;-43
2022/01/18 03:09:08;;;;;;;35.47;5.45;;;6.60;99.90;;;;;;5084161;28;20127;-44
2022/01/18 03:11:36;;;;;;;41.03;6.30;;;6.60;99.90;;;;;;5090850;28;20052;-43
2022/01/18 03:14:03;;;;;;;60.58;6.93;;;6.60;99.90;;;;;;5090887;28;20058;-44
2022/01/18 03:16:30;;;;;;;60.10;6.63;;;6.60;99.90;;;;;;5084099;28;20048;-42
2022/01/18 03:18:57;;;;;;;60.90;7.05;;;6.60;99.90;;;;;;5084362;28;20083;-43
2022/01/18 03:21:23;;;;;;;70.00;7.13;;;6.60;99.90;;;;;;5076005;28;20395;-42
2022/01/18 03:23:54;;;;;;;64.03;7.22;;;6.60;99.90;;;;;;5086836;28;20044;-44
2022/01/18 03:26:31;;;;;;;51.27;6.80;;;6.60;99.90;;;;;;5081002;28;20044;-44
2022/01/18 03:28:58;;;;;;;47.25;5.32;;;6.60;99.90;;;;;;5081005;28;20447;-43
2022/01/18 03:31:24;;;;;;;47.15;6.07;;;6.60;99.90;;;;;;5085742;28;20046;-44
2022/01/18 03:33:51;;;;;;;57.20;7.38;;;6.60;99.90;;;;;;5083536;28;20044;-44
2022/01/18 03:36:18;;;;;;;52.45;6.13;;;6.60;99.90;;;;;;5096082;28;20052;-43
2022/01/18 03:38:44;;;;;;;46.38;5.50;;;6.70;99.90;;;;;;5090380;28;20048;-45
2022/01/18 03:41:11;;;;;;;48.85;5.30;;;6.60;99.90;;;;;;5090155;28;20040;-42
2022/01/18 03:43:39;;;;;;;36.13;7.13;;;6.60;99.90;;;;;;5082575;28;20044;-43
2022/01/18 03:46:10;;;;;;;44.72;5.63;;;6.70;99.90;;;;;;5088367;28;20047;-43
2022/01/18 03:48:38;;;;;;;38.75;5.75;;;6.60;99.90;;;;;;5089898;28;20136;-42
2022/01/18 03:51:07;;;;;;;36.15;5.43;;;6.60;99.90;;;;;;5091254;28;20130;-42
2022/01/18 03:53:33;;;;;;;49.80;5.70;;;6.60;99.90;;;;;;5081586;28;20052;-43
2022/01/18 03:56:00;;;;;;;46.42;6.32;;;6.70;99.90;;;;;;5084931;28;20511;-43
2022/01/18 03:58:27;;;;;;;31.85;4.57;;;6.70;99.90;;;;;;5083176;28;20407;-44
2022/01/18 04:00:53;;;;;;;40.00;6.50;;;6.70;99.90;;;;;;5079212;28;20067;-43
2022/01/18 04:03:21;;;;;;;29.90;4.13;;;6.70;99.90;;;;;;5079861;28;20052;-43
2022/01/18 04:05:48;;;;;;;44.38;5.75;;;6.70;99.90;;;;;;5085595;28;20131;-43
2022/01/18 04:08:15;;;;;;;36.67;5.47;;;6.70;99.90;;;;;;5084890;28;20392;-43
2022/01/18 04:10:41;;;;;;;31.60;5.18;;;6.70;99.90;;;;;;5085992;28;20054;-42
2022/01/18 04:13:08;;;;;;;39.65;6.03;;;6.70;99.90;;;;;;5089165;28;20058;-43
2022/01/18 04:15:35;;;;;;;31.02;5.18;;;6.70;99.90;;;;;;5079118;28;20416;-43
2022/01/18 04:18:15;;;;;;;33.53;5.05;;;6.70;99.90;;;;;;5080899;28;20447;-43
2022/01/18 04:28:57;;;;;;;39.10;5.05;;;6.80;99.90;;;;;;5100257;28;20044;-43
2022/01/18 04:31:24;;;;;;;34.35;4.28;;;6.80;99.90;;;;;;5082997;28;20062;-43
2022/01/18 04:33:51;;;;;;;27.80;5.65;;;6.70;99.90;;;;;;5086245;28;20040;-43
2022/01/18 04:36:20;;;;;;;26.27;4.30;;;6.80;99.90;;;;;;5078838;28;20487;-42
2022/01/18 04:38:49;;;;;;;32.58;5.25;;;6.80;99.90;;;;;;5078563;28;20461;-43
2022/01/18 04:41:19;;;;;;;36.33;6.10;;;6.70;99.90;;;;;;5085662;28;20462;-43
2022/01/18 04:43:54;;;;;;;35.35;5.47;;;6.70;99.90;;;;;;5080141;28;20056;-43
2022/01/18 04:49:05;;;;;;;38.90;5.15;;;6.70;99.90;;;;;;5084590;28;20048;-44
2022/01/18 04:51:33;;;;;;;37.80;5.22;;;6.70;99.90;;;;;;5099439;28;20086;-45
2022/01/18 04:54:01;;;;;;;29.35;4.40;;;6.70;99.90;;;;;;5090474;28;20127;-44
2022/01/18 04:57:51;;;;;;;29.98;4.80;;;6.60;99.90;;;;;;5081394;28;20049;-42
2022/01/18 04:59:16;;;;;;;31.08;4.57;;;6.70;99.90;;;;;;5082289;28;20037;-43
2022/01/18 05:01:45;;;;;;;32.17;5.78;;;6.60;99.90;;;;;;5084894;28;20054;-43
2022/01/18 05:04:12;;;;;;;28.20;4.53;;;6.60;99.90;;;;;;5083039;28;20062;-43
2022/01/18 05:06:42;;;;;;;21.52;3.97;;;6.60;99.90;;;;;;5083716;28;20385;-44
2022/01/18 05:09:10;;;;;;;37.00;4.85;;;6.60;99.90;;;;;;5085182;28;20057;-45
2022/01/18 05:11:44;;;;;;;24.15;4.90;;;6.50;99.90;;;;;;5085190;28;20051;-43
2022/01/18 05:14:20;;;;;;;31.08;5.03;;;6.50;99.90;;;;;;5085497;28;20128;-44
2022/01/18 05:16:55;;;;;;;28.42;5.22;;;6.50;99.90;;;;;;5080301;28;20080;-44
2022/01/18 05:19:27;;;;;;;29.83;5.22;;;6.50;99.90;;;;;;5083976;28;20479;-45
2022/01/18 05:24:39;;;;;;;26.88;6.18;;;6.50;99.90;;;;;;5074114;28;20057;-44
2022/01/18 05:27:06;;;;;;;23.80;5.28;;;6.50;99.90;;;;;;5086871;28;20502;-43
2022/01/18 05:29:32;;;;;;;34.85;5.13;;;6.50;99.90;;;;;;5086799;28;20050;-45
2022/01/18 05:31:59;;;;;;;37.58;9.25;;;6.50;99.90;;;;;;5087732;28;20048;-42
2022/01/18 05:34:26;;;;;;;25.92;5.15;;;6.50;99.90;;;;;;5083479;28;20054;-43
2022/01/18 05:36:52;;;;;;;18.35;4.65;;;6.50;99.90;;;;;;5087322;28;20411;-44
2022/01/18 05:39:21;;;;;;;27.02;5.60;;;6.50;99.90;;;;;;5080913;28;20057;-45
2022/01/18 05:41:48;;;;;;;23.95;4.65;;;6.50;99.90;;;;;;5083738;28;20055;-43
2022/01/18 05:44:15;;;;;;;22.08;4.20;;;6.50;99.90;;;;;;5081200;28;20059;-42
2022/01/18 05:46:41;;;;;;;21.88;4.50;;;6.50;99.90;;;;;;5087424;28;20058;-44
2022/01/18 05:49:08;;;;;;;19.85;4.32;;;6.50;99.90;;;;;;5087996;28;20050;-43
2022/01/18 05:51:37;;;;;;;26.17;4.28;;;6.50;99.90;;;;;;5094248;28;20050;-42
2022/01/18 05:54:04;;;;;;;27.95;4.60;;;6.50;99.90;;;;;;5088847;28;20059;-43
2022/01/18 05:56:32;;;;;;;26.50;5.30;;;6.50;99.90;;;;;;5086459;28;20119;-43
2022/01/18 05:59:03;;;;;;;20.20;4.90;;;6.60;99.90;;;;;;5094512;28;20075;-43
2022/01/18 06:01:34;;;;;;;20.35;4.38;;;6.50;99.90;;;;;;5102323;28;20048;-45
2022/01/18 06:06:49;;;;;;;;;;;6.60;99.90;;;;;;5089898;28;20040;-42
2022/01/18 06:07:01;;;;;;;25.48;5.22;;;6.50;99.90;;;;;;5092968;28;19927;-43
2022/01/18 06:09:28;;;;;;;24.70;4.97;;;6.50;99.90;;;;;;5082953;28;20052;-44
2022/01/18 06:11:56;;;;;;;19.55;5.28;;;6.60;99.90;;;;;;5085273;28;20095;-43
2022/01/18 06:14:22;;;;;;;29.42;5.57;;;6.60;99.90;;;;;;5010119;22;20049;-43
2022/01/18 06:16:49;;;;;;;23.80;5.72;;;6.60;99.90;;;;;;5037898;28;20134;-40
2022/01/18 06:19:16;;;;;;;24.35;5.43;;;6.60;99.90;;;;;;5042624;28;20067;-43
2022/01/18 06:21:43;;;;;;;22.23;5.10;;;6.50;99.90;;;;;;5044671;28;20045;-42
2022/01/18 06:24:11;;;;;;;17.25;4.75;;;6.60;99.90;;;;;;5052074;28;20692;-43
2022/01/18 06:26:38;;;;;;;20.55;5.53;;;6.60;99.90;;;;;;5046943;28;20053;-43
2022/01/18 06:29:06;;;;;;;21.52;5.63;;;6.50;99.90;;;;;;5040198;28;20059;-44
2022/01/18 06:31:33;;;;;;;22.67;5.63;;;6.50;99.90;;;;;;5046867;28;20076;-42
2022/01/18 06:34:00;;;;;;;30.67;6.20;;;6.60;99.90;;;;;;5051997;28;20056;-42
2022/01/18 06:36:26;;;;;;;26.40;5.82;;;6.60;99.90;;;;;;5051196;28;20055;-43
2022/01/18 06:38:53;;;;;;;29.20;6.05;;;6.60;99.90;;;;;;5051698;28;20499;-42
2022/01/18 06:41:20;;;;;;;30.60;6.10;;;6.50;99.90;;;;;;5046763;28;20059;-44
2022/01/18 06:43:46;;;;;;;20.35;5.63;;;6.50;99.90;;;;;;5043313;28;20045;-44
2022/01/18 06:46:14;;;;;;;23.70;6.07;;;6.50;99.90;;;;;;5053081;28;20064;-44
2022/01/18 06:48:44;;;;;;;30.33;6.68;;;6.50;99.90;;;;;;5048129;28;20401;-43
2022/01/18 06:51:11;;;;;;;25.60;6.70;;;6.50;99.90;;;;;;5046963;28;20068;-42
2022/01/18 06:53:44;;;;;;;25.48;6.30;;;6.50;99.90;;;;;;5052701;28;20055;-43
2022/01/18 06:56:11;;;;;;;26.77;5.80;;;6.50;99.90;;;;;;5049506;28;20140;-43
2022/01/18 06:58:38;;;;;;;18.60;6.65;;;6.50;99.90;;;;;;5050092;28;20493;-45
2022/01/18 07:01:05;;;;;;;36.53;7.18;;;6.50;99.90;;;;;;5051052;28;20103;-44
2022/01/18 07:03:33;;;;;;;33.78;7.13;;;6.50;99.90;;;;;;5051450;28;20052;-43
2022/01/18 07:05:59;;;;;;;23.52;6.15;;;6.40;99.90;;;;;;5052865;28;20096;-45
2022/01/18 07:08:26;;;;;;;26.40;6.40;;;6.40;99.90;;;;;;5042930;28;20045;-42
2022/01/18 07:10:53;;;;;;;23.92;6.25;;;6.40;99.90;;;;;;5047058;28;20045;-42
2022/01/18 07:13:19;;;;;;;25.55;6.25;;;6.40;99.90;;;;;;5051648;28;20083;-42
2022/01/18 07:15:46;;;;;;;41.75;11.45;;;6.40;99.90;;;;;;5051909;28;20045;-42
2022/01/18 07:18:13;;;;;;;25.92;7.60;;;6.50;99.90;;;;;;5042509;28;20049;-42
2022/01/18 07:20:41;;;;;;;28.40;7.35;;;6.50;99.90;;;;;;5050865;28;20509;-44
2022/01/18 07:23:11;;;;;;;25.27;6.68;;;6.60;99.90;;;;;;5048182;28;20436;-44
2022/01/18 07:25:42;;;;;;;33.22;6.60;;;6.50;99.90;;;;;;5051073;28;20529;-42
2022/01/18 07:28:09;;;;;;;26.48;6.78;;;6.50;99.90;;;;;;5046814;28;20055;-43
2022/01/18 07:30:35;;;;;;;28.92;7.50;;;6.50;99.90;;;;;;5040752;28;20115;-43
2022/01/18 07:33:02;;;;;;;26.88;6.68;;;6.40;99.90;;;;;;5045698;28;20040;-44
2022/01/18 07:35:29;;;;;;;22.98;7.05;;;6.50;99.90;;;;;;5037708;28;20044;-42
2022/01/18 07:37:57;;;;;;;22.08;6.30;;;6.50;99.90;;;;;;5044695;28;20512;-42
2022/01/18 07:40:23;;;;;;;24.42;5.70;;;6.40;99.90;;;;;;5045568;28;20136;-44
2022/01/18 07:42:50;;;;;;;23.52;6.35;;;6.40;99.90;;;;;;5043332;28;20059;-43
2022/01/18 07:45:17;;;;;;;24.15;6.00;;;6.50;99.90;;;;;;5046725;28;20477;-44
2022/01/18 07:47:43;;;;;;;25.23;6.45;;;6.40;99.90;;;;;;5042597;28;20132;-43
2022/01/18 07:50:10;;;;;;;26.33;6.00;;;6.40;99.90;;;;;;5048085;28;20482;-43
2022/01/18 07:52:37;;;;;;;27.33;6.85;;;6.40;99.90;;;;;;5043772;28;20079;-43
2022/01/18 07:55:06;;;;;;;25.27;6.68;;;6.40;99.90;;;;;;5051598;28;20059;-43
2022/01/18 07:57:33;;;;;;;24.58;6.60;;;6.40;99.90;;;;;;5049861;28;20053;-44
2022/01/18 08:00:00;;;;;;;20.67;6.75;;;6.40;99.90;;;;;;5047578;28;20076;-44
2022/01/18 08:02:26;;;;;;;21.52;4.93;;;6.40;99.90;;;;;;5051017;28;20497;-44
2022/01/18 08:04:53;;;;;;;25.92;5.68;;;6.40;99.90;;;;;;5039863;28;20055;-43
2022/01/18 08:07:20;;;;;;;28.15;5.82;;;6.40;99.90;;;;;;5040058;28;20484;-43
2022/01/18 08:09:46;;;;;;;23.88;5.40;;;6.40;99.90;;;;;;5041349;28;20059;-42
2022/01/18 08:12:14;;;;;;;18.42;5.35;;;6.40;99.90;;;;;;5041888;28;20053;-43
2022/01/18 08:14:45;;;;;;;24.77;5.43;;;6.50;99.90;;;;;;5041359;28;20068;-45
2022/01/18 08:17:12;;;;;;;22.50;5.47;;;6.40;99.90;;;;;;5037248;28;20062;-42
2022/01/18 08:19:39;;;;;;;29.45;5.80;;;6.40;99.90;;;;;;5042989;28;20049;-42
2022/01/18 08:22:06;;;;;;;18.02;5.72;;;6.40;99.90;;;;;;5042197;28;20055;-41
2022/01/18 08:24:33;;;;;;;23.98;5.95;;;6.40;99.90;;;;;;5042756;28;20064;-44
2022/01/18 08:26:59;;;;;;;22.35;6.13;;;6.50;99.90;;;;;;5026068;28;20401;-42
2022/01/18 08:29:27;;;;;;;24.23;5.13;;;6.50;99.90;;;;;;5044007;28;20132;-41
2022/01/18 08:31:54;;;;;;;19.65;4.50;;;6.40;99.90;;;;;;5042470;28;20055;-44
2022/01/18 08:34:21;;;;;;;22.52;4.68;;;6.50;99.90;;;;;;5041608;28;20038;-43
2022/01/18 08:36:48;;;;;;;25.27;5.00;;;6.50;99.90;;;;;;5033895;28;20053;-42
2022/01/18 08:39:15;;;;;;;20.30;4.57;;;6.50;99.90;;;;;;5037944;28;20049;-42
2022/01/18 08:41:41;;;;;;;24.65;5.20;;;6.50;99.90;;;;;;5046224;28;20071;-43
2022/01/18 08:44:08;;;;;;;24.90;5.35;;;6.50;99.90;;;;;;5038378;28;20053;-42
2022/01/18 08:46:36;;;;;;;20.88;5.47;;;6.50;99.90;;;;;;5041612;28;20123;-43
2022/01/18 08:49:04;;;;;;;16.05;4.65;;;6.50;99.90;;;;;;5043723;28;20045;-43
2022/01/18 08:51:31;;;;;;;23.92;5.80;;;6.50;99.90;;;;;;5045183;28;20055;-43
2022/01/18 08:53:57;;;;;;;24.13;6.13;;;6.50;99.90;;;;;;5040149;28;20057;-42
2022/01/18 08:56:24;;;;;;;24.30;5.85;;;6.50;99.90;;;;;;5042812;28;20053;-43
2022/01/18 08:58:51;;;;;;;21.60;6.72;;;6.50;99.90;;;;;;5044426;28;20048;-43
2022/01/18 09:01:18;;;;;;;33.13;8.40;;;6.60;99.90;;;;;;5035351;28;20416;-43
2022/01/18 09:03:46;;;;;;;28.02;7.95;;;6.60;99.90;;;;;;5044389;28;20079;-40
2022/01/18 09:06:13;;;;;;;28.50;8.63;;;6.60;99.90;;;;;;5033573;28;20063;-43
2022/01/18 09:08:40;;;;;;;27.80;8.45;;;6.60;99.90;;;;;;5041388;28;20052;-42
2022/01/18 09:11:07;;;;;;;35.17;9.30;;;6.60;99.90;;;;;;5033769;28;20049;-44
2022/01/18 09:13:34;;;;;;;30.67;9.82;;;6.60;99.90;;;;;;5045628;28;20055;-43
2022/01/18 09:16:01;;;;;;;33.83;9.80;;;6.60;99.90;;;;;;5040464;28;20052;-43
2022/01/18 09:18:28;;;;;;;38.83;10.10;;;6.60;99.90;;;;;;5045340;28;20831;-44
2022/01/18 09:20:56;;;;;;;40.08;11.02;;;6.60;99.90;;;;;;5045131;28;20041;-43
2022/01/18 09:23:22;;;;;;;35.90;9.98;;;6.70;99.90;;;;;;5047902;28;20049;-41
2022/01/18 09:25:49;;;;;;;37.38;11.20;;;6.70;99.90;;;;;;5048926;28;20478;-42
2022/01/18 09:28:16;;;;;;;35.83;11.10;;;6.70;99.90;;;;;;5049606;28;20080;-43
2022/01/18 09:30:43;;;;;;;36.22;11.93;;;6.70;99.90;;;;;;5048545;28;20052;-42
2022/01/18 09:33:09;;;;;;;35.08;11.77;;;6.70;99.90;;;;;;5048150;28;20413;-43
2022/01/18 09:35:37;;;;;;;42.13;11.35;;;6.70;99.90;;;;;;5044130;28;20111;-42
2022/01/18 09:38:05;;;;;;;37.35;11.50;;;6.80;99.90;;;;;;5047908;28;20128;-43
2022/01/18 09:40:33;;;;;;;38.95;11.70;;;6.80;99.90;;;;;;5053541;28;20045;-42
2022/01/18 09:43:07;;;;;;;36.15;12.32;;;6.80;99.90;;;;;;5048662;28;20049;-43
2022/01/18 09:45:34;;;;;;;36.58;11.60;;;6.80;99.90;;;;;;5049705;28;20248;-42
2022/01/18 09:48:02;;;;;;;40.45;11.75;;;6.90;99.90;;;;;;5046865;28;20524;-41
2022/01/18 09:50:31;;;;;;;36.13;11.45;;;6.90;99.90;;;;;;5049152;28;20149;-43
2022/01/18 09:52:59;;;;;;;43.22;12.73;;;6.90;99.90;;;;;;5052243;28;20044;-44
2022/01/18 09:55:28;;;;;;;32.92;13.20;;;6.90;99.90;;;;;;5052028;28;20139;-46
2022/01/18 09:57:55;;;;;;;26.13;9.52;;;7.00;99.90;;;;;;5052339;28;20047;-44
2022/01/18 10:00:22;;;;;;;30.73;10.88;;;7.00;99.90;;;;;;5053157;28;20051;-42
2022/01/18 10:02:49;;;;;;;37.15;12.82;;;7.00;99.90;;;;;;5048566;28;20057;-44
2022/01/18 10:05:24;;;;;;;34.75;11.98;;;7.00;99.90;;;;;;5052026;28;20404;-44
2022/01/18 10:07:58;;;;;;;33.22;10.48;;;7.10;99.90;;;;;;5051143;28;20041;-43
2022/01/18 10:10:43;;;;;;;33.60;9.68;;;7.10;99.90;;;;;;5045373;28;20061;-43
2022/01/18 10:13:16;;;;;;;23.92;8.27;;;7.10;99.90;;;;;;5052473;28;20057;-42
2022/01/18 10:16:01;;;;;;;25.58;9.02;;;7.10;99.90;;;;;;5048125;28;20059;-48
2022/01/18 10:18:37;;;;;;;30.05;9.48;;;7.20;99.90;;;;;;5048082;28;20094;-44
2022/01/18 10:21:06;;;;;;;26.27;9.20;;;7.20;99.90;;;;;;5050413;28;20505;-43
2022/01/18 10:23:33;;;;;;;27.67;9.38;;;7.20;99.90;;;;;;5053110;28;20099;-42
2022/01/18 10:26:14;;;;;;;28.67;8.90;;;7.20;99.90;;;;;;5044230;28;20099;-43
2022/01/18 10:28:41;;;;;;;28.63;9.63;;;7.20;99.90;;;;;;5050219;28;20071;-43
2022/01/18 10:31:26;;;;;;;29.73;9.32;;;7.10;99.90;;;;;;5043551;28;20382;-43
2022/01/18 10:34:14;;;;;;;28.35;9.07;;;7.20;99.90;;;;;;5043085;28;20137;-44
2022/01/18 10:37:01;;;;;;;30.08;8.70;;;7.20;99.90;;;;;;5050668;28;20091;-43
2022/01/18 10:39:28;;;;;;;24.98;9.30;;;7.20;99.90;;;;;;5051623;28;20115;-42
2022/01/18 10:41:57;;;;;;;26.50;9.45;;;7.20;99.90;;;;;;5047864;28;20053;-42
2022/01/18 10:44:24;;;;;;;23.27;8.98;;;7.30;99.90;;;;;;5049411;28;20045;-43
2022/01/18 10:46:53;;;;;;;23.42;8.07;;;7.30;99.90;;;;;;5050788;28;20084;-44
2022/01/18 10:49:35;;;;;;;20.17;7.13;;;7.50;99.90;;;;;;5050461;28;20057;-43
2022/01/18 10:52:05;;;;;;;22.42;7.60;;;7.40;99.90;;;;;;5050947;28;20083;-43
2022/01/18 10:54:36;;;;;;;22.25;6.65;;;7.50;99.90;;;;;;5052454;28;20516;-45
2022/01/18 10:57:06;;;;;;;19.63;6.15;;;7.50;99.90;;;;;;5046778;28;20045;-44
2022/01/18 10:59:33;;;;;;;20.83;5.15;;;7.50;99.90;;;;;;5040258;28;20045;-44
2022/01/18 11:02:08;;;;;;;17.55;5.50;;;7.50;99.90;;;;;;5052304;28;20049;-44
2022/01/18 11:04:35;;;;;;;21.63;5.63;;;7.60;99.90;;;;;;5040059;28;20050;-46
2022/01/18 11:07:03;;;;;;;24.00;5.63;;;7.50;99.90;;;;;;5048883;28;20063;-43
2022/01/18 11:09:30;;;;;;;25.88;5.93;;;7.50;99.90;;;;;;5051494;28;20045;-44
2022/01/18 11:11:57;;;;;;;21.75;5.60;;;7.50;99.90;;;;;;5050920;28;20138;-42
2022/01/18 11:14:26;;;;;;;21.45;6.57;;;7.50;99.90;;;;;;5046160;28;20392;-42
2022/01/18 11:16:56;;;;;;;20.17;5.43;;;7.50;99.90;;;;;;5046411;28;20048;-43
2022/01/18 11:19:32;;;;;;;19.55;5.82;;;7.60;99.90;;;;;;5051079;28;20056;-44
2022/01/18 11:22:00;;;;;;;15.63;4.72;;;7.60;99.90;;;;;;5050979;28;20049;-43
2022/01/18 11:24:28;;;;;;;19.50;6.22;;;7.50;99.90;;;;;;5046551;28;20041;-43
2022/01/18 11:26:55;;;;;;;18.50;4.45;;;7.60;99.90;;;;;;5039783;28;20049;-42
2022/01/18 11:29:22;;;;;;;18.05;4.85;;;7.60;99.90;;;;;;5043339;28;20053;-42
2022/01/18 11:31:51;;;;;;;19.70;4.20;;;7.60;99.90;;;;;;5048878;28;20052;-42
2022/01/18 11:34:32;;;;;;;19.25;4.20;;;7.60;99.90;;;;;;5051397;28;20489;-44
2022/01/18 11:37:04;;;;;;;15.05;4.90;;;7.60;99.90;;;;;;5037941;28;20053;-45
2022/01/18 11:39:31;;;;;;;20.13;6.20;;;7.60;99.90;;;;;;5044637;28;20044;-41
2022/01/18 11:42:06;;;;;;;15.48;4.60;;;7.60;99.90;;;;;;5038400;28;20151;-44
2022/01/18 11:44:32;;;;;;;19.17;4.15;;;7.70;99.90;;;;;;5044679;28;20473;-44
2022/01/18 11:47:05;;;;;;;18.63;4.05;;;7.70;99.90;;;;;;5051044;28;20057;-42
2022/01/18 11:49:33;;;;;;;23.60;5.25;;;7.70;99.90;;;;;;5043715;28;20136;-43
2022/01/18 11:52:03;;;;;;;21.27;3.75;;;7.80;99.90;;;;;;5050422;28;20128;-43
2022/01/18 11:54:40;;;;;;;14.13;3.92;;;7.70;99.90;;;;;;5042929;28;20059;-44
2022/01/18 11:57:34;;;;;;;12.55;3.55;;;7.70;99.90;;;;;;5045005;28;20132;-41
2022/01/18 12:00:24;;;;;;;17.75;3.45;;;7.70;99.90;;;;;;5047690;28;20118;-44
2022/01/18 12:02:55;;;;;;;17.60;4.00;;;7.80;99.90;;;;;;5047270;28;20480;-43
2022/01/18 12:05:25;;;;;;;18.40;4.18;;;7.70;99.90;;;;;;5042117;28;20051;-45
2022/01/18 12:07:53;;;;;;;21.70;4.43;;;7.80;99.90;;;;;;5043075;28;20055;-45
2022/01/18 12:10:43;;;;;;;15.85;3.88;;;7.80;99.90;;;;;;5049745;28;20135;-43
2022/01/18 12:13:12;;;;;;;18.33;3.17;;;7.90;99.90;;;;;;5047235;28;20144;-43
2022/01/18 12:15:50;;;;;;;12.93;3.58;;;7.80;99.90;;;;;;5046404;28;20064;-43
2022/01/18 12:18:19;;;;;;;18.20;3.20;;;7.90;99.90;;;;;;5049455;28;20056;-41
2022/01/18 12:20:46;;;;;;;17.90;4.38;;;7.80;99.90;;;;;;5044600;28;20107;-42
2022/01/18 12:23:14;;;;;;;15.60;3.00;;;7.80;99.90;;;;;;5042463;28;20053;-44
2022/01/18 12:25:54;;;;;;;17.40;3.72;;;7.70;99.90;;;;;;5042680;28;20148;-42
2022/01/18 12:28:57;;;;;;;18.77;4.30;;;7.70;99.90;;;;;;5043198;28;20058;-42
2022/01/18 12:32:20;;;;;;;15.57;3.95;;;7.70;99.90;;;;;;5045484;28;20466;-46
2022/01/18 12:34:51;;;;;;;14.65;4.07;;;7.70;99.90;;;;;;5049819;28;20044;-43
2022/01/18 12:37:34;;;;;;;16.15;4.03;;;7.70;99.90;;;;;;5051783;28;20052;-44
2022/01/18 12:40:07;;;;;;;21.25;4.72;;;7.70;99.90;;;;;;5047932;28;20053;-42
2022/01/18 12:45:22;;;;;;;24.92;5.00;;;7.60;99.90;;;;;;5046574;28;20053;-42
2022/01/18 12:47:50;;;;;;;15.05;4.15;;;7.60;99.90;;;;;;5044211;28;20084;-43
2022/01/18 12:50:22;;;;;;;19.77;5.32;;;7.60;99.90;;;;;;5047582;28;20045;-44
2022/01/18 12:52:49;;;;;;;20.38;5.28;;;7.60;99.90;;;;;;5043694;28;20107;-43
2022/01/18 12:55:35;;;;;;;12.40;4.30;;;7.60;99.90;;;;;;5049090;28;20162;-44
2022/01/18 12:58:03;;;;;;;18.10;5.00;;;7.60;99.90;;;;;;5048157;28;20099;-43
2022/01/18 13:00:30;;;;;;;14.93;5.20;;;7.60;99.90;;;;;;5049159;28;20048;-44
2022/01/18 13:03:00;;;;;;;19.88;6.00;;;7.60;99.90;;;;;;5047754;28;20401;-44
2022/01/18 13:05:42;;;;;;;21.30;6.03;;;7.70;99.90;;;;;;5043252;28;20048;-43
2022/01/18 13:08:09;;;;;;;18.45;6.70;;;7.70;99.90;;;;;;5046510;28;20559;-43
2022/01/18 13:10:41;;;;;;;20.48;6.25;;;7.70;99.90;;;;;;5050010;28;20119;-44
2022/01/18 13:13:09;;;;;;;;;;;7.70;99.90;;;;;;5049190;28;20131;-44
2022/01/18 13:16:03;;;;;;;22.67;7.55;;;7.70;99.90;;;;;;5048325;28;19928;-42
2022/01/18 13:24:13;;;;;;;26.13;7.47;;;7.60;99.90;;;;;;5049619;28;20099;-44
2022/01/18 13:26:45;;;;;;;19.85;7.13;;;7.80;99.90;;;;;;5049141;28;20485;-44
2022/01/18 13:29:13;;;;;;;24.60;7.43;;;7.70;99.90;;;;;;5049663;28;20057;-44
2022/01/18 13:31:42;;;;;;;22.80;7.53;;;7.70;99.90;;;;;;5044859;28;20485;-43
2022/01/18 13:34:11;;;;;;;27.38;8.27;;;7.80;99.90;;;;;;5041760;28;20052;-44
2022/01/18 13:36:53;;;;;;;22.25;6.88;;;7.70;99.90;;;;;;5046814;28;20051;-43
2022/01/18 13:39:28;;;;;;;24.65;7.55;;;7.80;99.90;;;;;;5048574;28;20052;-43
2022/01/18 13:41:55;;;;;;;23.50;7.70;;;7.70;99.90;;;;;;5046784;28;20099;-44
2022/01/18 13:44:22;;;;;;;24.58;7.90;;;7.70;99.90;;;;;;5040506;28;20413;-44
2022/01/18 13:46:48;;;;;;;26.30;7.15;;;7.70;99.90;;;;;;5045942;28;20048;-44
2022/01/18 13:49:15;;;;;;;25.75;7.15;;;7.70;99.90;;;;;;5044750;28;20484;-44
2022/01/18 13:52:01;;;;;;;24.13;8.65;;;7.70;99.90;;;;;;5039637;28;20057;-43
2022/01/18 13:54:28;;;;;;;26.50;8.85;;;7.70;99.90;;;;;;5050087;28;20057;-44